Catalina, Arizona
Current Conditions -  °F | °C
As of 12:55 PM on Sunday 23 Nov 2014 (Local Time) from KAVQ Reporting Station
Clear Clear  
Wind Chill: 67°   Ceiling: Unl
Heat Index: 67°   Visibility: 10mi
Dew Point: 28°   Wind: 13mph
Humidity: 23%   Direction: 320°NW
Pressure: 30.05"   Gusts: 20mph
Location:  32.48°N, 110.9°W
Report Text: KAVQ 231955Z AUTO 32011G17KT 10SM CLR 19/M02 A3005 RMK AO2 T01941022
Loading
Personal Weather Stations






























Interactive Weather Map New forecast layout! Learn more

10-Day Weather Forecast

Advertisements
Track Severe Weather on mobile